createdAt,value
2019-06-26T00:01:56.338Z,23.46
2019-06-26T00:04:30.767Z,23.67
2019-06-26T00:07:04.414Z,23.73
2019-06-26T00:09:38.742Z,23.67
2019-06-26T00:12:14.666Z,23.60
2019-06-26T00:14:46.901Z,23.69
2019-06-26T00:17:21.665Z,23.79
2019-06-26T00:19:56.393Z,23.68
2019-06-26T00:22:30.917Z,23.54
2019-06-26T00:25:03.301Z,23.49
2019-06-26T00:27:36.960Z,23.40
2019-06-26T00:30:30.199Z,23.41
2019-06-26T00:33:01.899Z,23.37
2019-06-26T00:35:34.790Z,23.36
2019-06-26T00:38:09.418Z,23.19
2019-06-26T00:40:43.844Z,23.12
2019-06-26T00:43:17.258Z,23.08
2019-06-26T00:45:50.850Z,23.02
2019-06-26T00:48:25.632Z,23.09
2019-06-26T00:51:01.897Z,23.12
2019-06-26T00:53:35.946Z,23.08
2019-06-26T00:56:09.771Z,23.07
2019-06-26T00:58:43.774Z,23.10
2019-06-26T01:01:17.510Z,23.08
2019-06-26T01:03:53.598Z,23.22
2019-06-26T01:06:45.409Z,23.30
2019-06-26T01:09:19.859Z,23.25
2019-06-26T01:11:53.554Z,23.34
2019-06-26T01:14:26.638Z,23.43
2019-06-26T01:16:59.871Z,23.36
2019-06-26T01:19:34.563Z,23.29
2019-06-26T01:22:08.217Z,23.24
2019-06-26T01:24:41.863Z,23.25
2019-06-26T01:27:16.223Z,23.33
2019-06-26T01:29:48.868Z,23.35
2019-06-26T01:32:25.536Z,23.39
2019-06-26T01:34:58.939Z,23.31
2019-06-26T01:37:33.051Z,23.26
2019-06-26T01:40:08.199Z,23.27
2019-06-26T01:42:44.060Z,23.37
2019-06-26T01:45:18.001Z,23.30
2019-06-26T01:47:51.086Z,23.37
2019-06-26T01:50:26.333Z,23.25
2019-06-26T01:52:59.886Z,23.23
2019-06-26T01:55:34.828Z,23.15
2019-06-26T01:58:10.013Z,23.17
2019-06-26T02:00:45.294Z,23.08
2019-06-26T02:03:18.078Z,22.95
2019-06-26T02:05:51.859Z,22.86
2019-06-26T02:08:24.515Z,22.71
2019-06-26T02:10:58.464Z,22.45
2019-06-26T02:13:31.660Z,22.38
2019-06-26T02:16:27.914Z,22.19
2019-06-26T02:19:02.606Z,22.15
2019-06-26T02:21:35.718Z,22.04
2019-06-26T02:24:09.755Z,21.91
2019-06-26T02:26:43.122Z,21.90
2019-06-26T02:29:15.845Z,21.91
2019-06-26T02:31:48.238Z,21.86
2019-06-26T02:34:23.495Z,21.88
2019-06-26T02:36:57.094Z,21.86
2019-06-26T02:39:29.651Z,21.92
2019-06-26T02:42:02.224Z,21.86
2019-06-26T02:44:52.300Z,21.91
2019-06-26T02:47:20.218Z,21.93
2019-06-26T02:49:48.963Z,21.97
2019-06-26T02:52:22.932Z,21.99
2019-06-26T02:54:55.545Z,22.00
2019-06-26T02:57:28.285Z,22.03
2019-06-26T03:00:02.143Z,21.99
2019-06-26T03:02:35.199Z,22.03
2019-06-26T03:05:28.907Z,22.04
2019-06-26T03:08:01.935Z,22.02
2019-06-26T03:10:35.013Z,22.02
2019-06-26T03:13:07.575Z,22.01
2019-06-26T03:15:40.686Z,21.96
2019-06-26T03:18:12.950Z,21.93
2019-06-26T03:20:57.654Z,21.89
2019-06-26T03:23:43.961Z,21.89
2019-06-26T03:26:13.446Z,21.85
2019-06-26T03:28:46.756Z,21.76
2019-06-26T03:31:23.856Z,21.71
2019-06-26T03:33:58.997Z,21.55
2019-06-26T03:36:31.981Z,21.35
2019-06-26T03:39:07.718Z,21.39
2019-06-26T03:44:32.287Z,21.49
2019-06-26T03:47:05.644Z,21.52
2019-06-26T03:49:38.447Z,21.61
2019-06-26T03:52:12.759Z,21.69
2019-06-26T03:54:45.921Z,21.79
2019-06-26T03:57:17.803Z,21.97
2019-06-26T03:59:51.180Z,22.21
2019-06-26T04:02:23.307Z,22.40
2019-06-26T04:04:56.195Z,22.60
2019-06-26T04:07:27.957Z,22.63
2019-06-26T04:10:01.455Z,22.85
2019-06-26T04:12:35.021Z,23.00
2019-06-26T04:15:09.008Z,23.35
2019-06-26T04:17:43.690Z,23.05
2019-06-26T04:20:16.051Z,22.76
2019-06-26T04:22:48.262Z,23.15
2019-06-26T04:25:20.496Z,23.47
2019-06-26T04:27:54.764Z,23.77
2019-06-26T04:30:27.043Z,24.20
2019-06-26T04:32:59.614Z,24.68
2019-06-26T04:35:32.313Z,24.99
2019-06-26T04:38:04.391Z,25.05
2019-06-26T04:40:37.866Z,25.46
2019-06-26T04:43:10.599Z,25.84
2019-06-26T04:45:57.266Z,25.95
2019-06-26T04:48:18.655Z,25.96
2019-06-26T04:50:52.693Z,26.20
2019-06-26T04:53:26.208Z,26.58
2019-06-26T04:56:01.962Z,27.03
2019-06-26T04:58:34.847Z,26.95
2019-06-26T05:01:07.470Z,27.01
2019-06-26T05:03:41.217Z,27.55
2019-06-26T05:06:13.847Z,27.29
2019-06-26T05:08:49.218Z,27.28
2019-06-26T05:11:28.589Z,27.44
2019-06-26T05:14:02.596Z,27.51
2019-06-26T05:16:41.972Z,27.64
2019-06-26T05:19:15.604Z,27.74
2019-06-26T05:21:49.545Z,28.30
2019-06-26T05:24:22.318Z,27.99
2019-06-26T05:26:56.188Z,27.96
2019-06-26T05:29:28.452Z,27.81
2019-06-26T05:32:01.138Z,27.84
2019-06-26T05:34:33.655Z,28.63
2019-06-26T05:37:06.245Z,28.06
2019-06-26T05:39:40.255Z,29.63
2019-06-26T05:42:17.028Z,28.81
2019-06-26T05:44:51.350Z,28.59
2019-06-26T05:47:25.633Z,29.11
2019-06-26T05:49:59.165Z,29.89
2019-06-26T05:52:43.585Z,29.91
2019-06-26T05:55:19.296Z,29.71
2019-06-26T05:57:54.996Z,31.05
2019-06-26T06:00:29.274Z,31.42
2019-06-26T06:03:01.734Z,32.14
2019-06-26T06:05:36.443Z,32.15
2019-06-26T06:08:10.895Z,32.24
2019-06-26T06:10:48.278Z,32.02
2019-06-26T06:13:49.266Z,32.31
2019-06-26T06:16:25.864Z,31.19
2019-06-26T06:19:00.853Z,30.28
2019-06-26T06:21:35.895Z,31.72
2019-06-26T06:24:08.286Z,32.28
2019-06-26T06:26:42.621Z,33.09
2019-06-26T06:29:20.258Z,33.56
2019-06-26T06:31:52.679Z,34.04
2019-06-26T06:34:25.325Z,33.66
2019-06-26T06:36:58.854Z,33.95
2019-06-26T06:39:31.399Z,34.13
2019-06-26T06:42:05.369Z,34.87
2019-06-26T06:44:46.532Z,34.35
2019-06-26T06:47:20.725Z,35.12
2019-06-26T06:49:53.175Z,35.15
2019-06-26T06:52:33.276Z,35.50
2019-06-26T06:55:09.480Z,35.87
2019-06-26T06:57:49.984Z,36.17
2019-06-26T07:00:29.022Z,35.91
2019-06-26T07:03:09.188Z,36.32
2019-06-26T07:05:45.758Z,36.62
2019-06-26T07:09:06.299Z,37.06
2019-06-26T07:12:31.831Z,36.81
2019-06-26T07:15:16.685Z,36.96
2019-06-26T07:17:53.770Z,36.18
2019-06-26T07:20:30.194Z,36.07
2019-06-26T07:23:04.434Z,36.56
2019-06-26T07:25:43.327Z,36.71
2019-06-26T07:31:25.350Z,36.79
2019-06-26T07:34:07.113Z,36.91
2019-06-26T07:37:31.899Z,36.51
2019-06-26T07:40:05.420Z,36.03
2019-06-26T07:42:37.471Z,36.60
2019-06-26T07:45:14.992Z,36.49
2019-06-26T07:47:47.095Z,37.18
2019-06-26T07:50:20.573Z,37.35
2019-06-26T07:52:52.813Z,37.68
2019-06-26T07:55:24.771Z,38.11
2019-06-26T07:57:58.373Z,38.37
2019-06-26T08:00:31.679Z,38.41
2019-06-26T08:03:10.208Z,37.77
2019-06-26T08:05:43.229Z,37.59
2019-06-26T08:08:15.143Z,37.84
2019-06-26T08:10:47.119Z,38.01
2019-06-26T08:13:21.333Z,38.39
2019-06-26T08:15:54.297Z,38.17
2019-06-26T08:18:26.302Z,38.51
2019-06-26T08:21:11.458Z,38.40
2019-06-26T08:23:33.910Z,38.70
2019-06-26T08:26:05.925Z,38.67
2019-06-26T08:28:37.926Z,37.44
2019-06-26T08:31:10.264Z,37.20
2019-06-26T08:33:42.414Z,36.48
2019-06-26T08:36:17.221Z,35.94
2019-06-26T08:38:49.604Z,34.92
2019-06-26T08:41:21.746Z,34.54
2019-06-26T08:43:54.149Z,34.01
2019-06-26T08:46:26.042Z,33.78
2019-06-26T08:48:58.329Z,34.58
2019-06-26T08:51:31.406Z,35.22
2019-06-26T08:54:05.446Z,35.28
2019-06-26T08:56:39.711Z,35.14
2019-06-26T08:59:12.140Z,35.03
2019-06-26T09:01:44.968Z,35.65
2019-06-26T09:04:18.260Z,36.23
2019-06-26T09:06:50.519Z,36.76
2019-06-26T09:09:22.751Z,36.55
2019-06-26T09:11:54.815Z,36.09
2019-06-26T09:14:27.766Z,35.83
2019-06-26T09:17:00.559Z,36.01
2019-06-26T09:19:42.336Z,35.64
2019-06-26T09:22:15.820Z,35.67
2019-06-26T09:24:52.500Z,36.33
2019-06-26T09:27:28.081Z,36.56
2019-06-26T09:30:08.207Z,36.49
2019-06-26T09:32:42.737Z,36.68
2019-06-26T09:35:32.805Z,37.60
2019-06-26T09:38:13.981Z,37.85
2019-06-26T09:47:22.377Z,37.52
2019-06-26T09:49:57.525Z,36.97
2019-06-26T09:52:34.196Z,37.15
2019-06-26T09:55:47.293Z,37.59
2019-06-26T10:02:31.883Z,35.99
2019-06-26T10:05:23.475Z,35.84
2019-06-26T10:10:54.159Z,34.77
2019-06-26T10:13:26.503Z,35.09
2019-06-26T10:16:24.469Z,34.87
2019-06-26T10:19:09.515Z,34.78
2019-06-26T10:21:34.742Z,34.95
2019-06-26T10:24:10.036Z,34.64
2019-06-26T10:26:44.652Z,34.87
2019-06-26T10:29:19.553Z,35.23
2019-06-26T10:31:51.832Z,35.02
2019-06-26T10:34:24.133Z,35.28
2019-06-26T10:36:56.635Z,34.42
2019-06-26T10:40:16.143Z,34.20
2019-06-26T10:43:18.624Z,34.52
2019-06-26T10:46:29.585Z,35.02
2019-06-26T10:49:25.944Z,35.41
2019-06-26T10:51:45.090Z,34.72
2019-06-26T10:54:20.383Z,34.32
2019-06-26T10:56:58.301Z,34.86
2019-06-26T10:59:37.742Z,35.51
2019-06-26T11:02:10.984Z,35.74
2019-06-26T11:04:52.524Z,35.88
2019-06-26T11:07:32.196Z,36.29
2019-06-26T11:10:22.892Z,35.89
2019-06-26T11:12:56.200Z,36.23
2019-06-26T11:15:42.253Z,36.34
2019-06-26T11:18:26.353Z,36.38
2019-06-26T11:21:12.787Z,36.03
2019-06-26T11:23:51.584Z,36.29
2019-06-26T11:26:26.632Z,36.14
2019-06-26T11:29:06.140Z,35.68
2019-06-26T11:32:03.739Z,35.44
2019-06-26T11:34:53.379Z,35.49
2019-06-26T11:37:38.757Z,35.10
2019-06-26T11:40:29.820Z,35.02
2019-06-26T11:43:09.030Z,34.42
2019-06-26T11:45:58.852Z,34.55
2019-06-26T11:48:52.145Z,35.46
2019-06-26T11:51:42.880Z,35.70
2019-06-26T11:54:42.819Z,35.58
2019-06-26T11:57:24.337Z,36.17
2019-06-26T12:00:14.829Z,36.49
2019-06-26T12:03:02.829Z,36.34
2019-06-26T12:05:43.078Z,35.52
2019-06-26T12:08:26.660Z,34.60
2019-06-26T12:11:04.087Z,34.43
2019-06-26T12:13:37.488Z,33.68
2019-06-26T12:16:13.595Z,33.31
2019-06-26T12:18:50.684Z,33.83
2019-06-26T12:21:24.284Z,33.57
2019-06-26T12:23:57.476Z,33.80
2019-06-26T12:26:33.521Z,33.73
2019-06-26T12:29:06.460Z,33.76
2019-06-26T12:31:47.334Z,33.41
2019-06-26T12:34:21.038Z,33.57
2019-06-26T12:37:06.413Z,33.54
2019-06-26T12:39:42.538Z,33.43
2019-06-26T12:42:18.832Z,33.81
2019-06-26T12:44:53.876Z,33.90
2019-06-26T12:47:31.499Z,33.19
2019-06-26T12:50:08.635Z,33.12
2019-06-26T12:52:50.489Z,33.37
2019-06-26T12:55:23.794Z,33.73
2019-06-26T12:58:11.586Z,34.06
2019-06-26T13:00:30.861Z,33.99
2019-06-26T13:03:10.461Z,34.03
2019-06-26T13:05:50.285Z,34.52
2019-06-26T13:08:54.118Z,34.00
2019-06-26T13:11:48.778Z,33.60
2019-06-26T13:14:25.344Z,33.76
2019-06-26T13:17:10.962Z,33.68
2019-06-26T13:19:57.068Z,33.93
2019-06-26T13:22:36.903Z,33.70
2019-06-26T13:25:10.858Z,33.88
2019-06-26T13:28:01.597Z,33.72
2019-06-26T13:30:45.343Z,33.08
2019-06-26T13:33:21.769Z,32.76
2019-06-26T13:35:57.402Z,32.76
2019-06-26T13:38:32.494Z,32.96
2019-06-26T13:41:05.867Z,33.13
2019-06-26T13:43:41.229Z,33.23
2019-06-26T13:46:15.274Z,33.17
2019-06-26T13:48:52.542Z,33.00
2019-06-26T13:51:30.480Z,32.80
2019-06-26T13:54:07.436Z,32.97
2019-06-26T13:57:03.180Z,32.49
2019-06-26T13:59:41.240Z,32.37
2019-06-26T14:02:23.383Z,32.45
2019-06-26T14:04:56.304Z,32.67
2019-06-26T14:10:49.563Z,32.58
2019-06-26T14:16:40.223Z,32.58
2019-06-26T14:19:17.126Z,32.74
2019-06-26T14:22:05.238Z,33.02
2019-06-26T14:24:40.699Z,33.08
2019-06-26T14:27:15.305Z,32.94
2019-06-26T14:29:51.387Z,32.98
2019-06-26T14:32:26.943Z,33.04
2019-06-26T14:35:10.653Z,32.74
2019-06-26T14:37:58.004Z,32.76
2019-06-26T14:40:32.259Z,32.71
2019-06-26T14:43:12.255Z,32.66
2019-06-26T14:46:03.427Z,32.59
2019-06-26T14:48:36.998Z,32.57
2019-06-26T14:51:13.280Z,32.37
2019-06-26T14:53:45.794Z,32.28
2019-06-26T14:56:32.299Z,32.21
2019-06-26T14:59:11.464Z,32.21
2019-06-26T15:01:45.457Z,32.26
2019-06-26T15:04:19.942Z,32.42
2019-06-26T15:07:02.453Z,32.39
2019-06-26T15:09:40.670Z,32.28
2019-06-26T15:12:24.823Z,32.10
2019-06-26T15:15:01.052Z,32.12
2019-06-26T15:17:34.486Z,32.24
2019-06-26T15:20:11.731Z,32.29
2019-06-26T15:23:16.414Z,32.33
2019-06-26T15:26:26.658Z,32.36
2019-06-26T15:29:06.843Z,32.16
2019-06-26T15:31:41.305Z,32.07
2019-06-26T15:34:14.486Z,32.13
2019-06-26T15:36:54.762Z,32.07
2019-06-26T15:39:28.347Z,32.15
2019-06-26T15:42:36.528Z,32.13
2019-06-26T15:45:14.117Z,32.17
2019-06-26T15:47:48.878Z,32.22
2019-06-26T15:50:35.317Z,32.15
2019-06-26T15:53:29.949Z,32.21
2019-06-26T15:56:37.528Z,32.21
2019-06-26T15:59:24.372Z,32.20
2019-06-26T16:02:02.256Z,32.20
2019-06-26T16:04:46.918Z,32.14
2019-06-26T16:07:21.078Z,32.05
2019-06-26T16:09:54.909Z,31.89
2019-06-26T16:12:29.671Z,31.87
2019-06-26T16:15:08.958Z,31.84
2019-06-26T16:17:44.976Z,31.77
2019-06-26T16:20:20.486Z,31.77
2019-06-26T16:22:53.924Z,31.83
2019-06-26T16:25:28.767Z,31.81
2019-06-26T16:28:10.671Z,31.77
2019-06-26T16:30:46.157Z,31.76
2019-06-26T16:33:23.218Z,31.74
2019-06-26T16:36:00.257Z,31.67
2019-06-26T16:38:54.160Z,31.64
2019-06-26T16:44:25.844Z,31.64
2019-06-26T16:50:07.024Z,31.62
2019-06-26T16:52:49.362Z,31.58
2019-06-26T16:55:16.098Z,31.50
2019-06-26T17:00:36.335Z,31.51
2019-06-26T17:03:09.509Z,31.47
2019-06-26T17:05:43.811Z,31.43
2019-06-26T17:11:23.790Z,31.29
2019-06-26T17:14:03.315Z,31.31
2019-06-26T17:16:47.566Z,31.24
2019-06-26T17:19:22.620Z,31.17
2019-06-26T17:22:03.741Z,31.17
2019-06-26T17:24:38.112Z,31.16
2019-06-26T17:27:13.044Z,31.03
2019-06-26T17:29:45.711Z,31.02
2019-06-26T17:32:18.432Z,31.02
2019-06-26T17:34:52.367Z,30.94
2019-06-26T17:40:29.158Z,30.84
2019-06-26T17:43:12.435Z,30.80
2019-06-26T17:45:42.290Z,30.63
2019-06-26T17:48:15.769Z,30.60
2019-06-26T17:50:50.891Z,30.48
2019-06-26T17:53:24.659Z,30.53
2019-06-26T17:55:57.031Z,30.49
2019-06-26T17:58:31.236Z,30.35
2019-06-26T18:01:03.603Z,30.32
2019-06-26T18:03:36.822Z,30.19
2019-06-26T18:06:09.744Z,30.20
2019-06-26T18:08:45.032Z,30.08
2019-06-26T18:11:20.796Z,30.01
2019-06-26T18:13:53.831Z,29.93
2019-06-26T18:16:46.980Z,29.76
2019-06-26T18:19:38.082Z,29.62
2019-06-26T18:22:12.811Z,29.48
2019-06-26T18:24:47.951Z,29.41
2019-06-26T18:27:21.156Z,29.36
2019-06-26T18:29:55.135Z,29.31
2019-06-26T18:32:31.932Z,29.19
2019-06-26T18:35:07.427Z,29.06
2019-06-26T18:37:50.684Z,28.96
2019-06-26T18:40:25.698Z,28.83
2019-06-26T18:43:02.317Z,28.72
2019-06-26T18:45:36.200Z,28.70
2019-06-26T18:48:09.894Z,28.68
2019-06-26T18:50:43.829Z,28.58
2019-06-26T18:53:21.362Z,28.55
2019-06-26T18:55:55.933Z,28.37
2019-06-26T18:58:32.998Z,28.30
2019-06-26T19:01:07.727Z,28.32
2019-06-26T19:03:45.057Z,28.37
2019-06-26T19:06:18.065Z,28.44
2019-06-26T19:08:53.981Z,28.48
2019-06-26T19:11:29.841Z,28.51
2019-06-26T19:14:08.955Z,28.51
2019-06-26T19:16:50.590Z,28.49
2019-06-26T19:19:25.460Z,28.43
2019-06-26T19:22:23.377Z,28.34
2019-06-26T19:24:58.279Z,28.25
2019-06-26T19:27:39.629Z,28.24
2019-06-26T19:30:14.239Z,28.06
2019-06-26T19:32:52.628Z,28.03
2019-06-26T19:35:30.264Z,28.00
2019-06-26T19:38:03.548Z,27.91
2019-06-26T19:40:48.513Z,27.85
2019-06-26T19:43:24.695Z,27.73
2019-06-26T19:46:21.500Z,27.62
2019-06-26T19:48:57.507Z,27.40
2019-06-26T19:51:32.723Z,27.24
2019-06-26T19:54:08.780Z,27.08
2019-06-26T19:56:44.948Z,27.00
2019-06-26T19:59:19.086Z,26.97
2019-06-26T20:01:52.991Z,26.79
2019-06-26T20:04:29.118Z,26.81
2019-06-26T20:07:04.062Z,26.78
2019-06-26T20:10:06.058Z,26.77
2019-06-26T20:12:44.506Z,26.68
2019-06-26T20:15:20.352Z,26.82
2019-06-26T20:17:59.462Z,26.88
2019-06-26T20:20:33.745Z,26.81
2019-06-26T20:23:08.630Z,26.77
2019-06-26T20:25:42.853Z,26.83
2019-06-26T20:28:18.104Z,26.75
2019-06-26T20:30:51.945Z,26.74
2019-06-26T20:33:25.134Z,26.62
2019-06-26T20:35:59.898Z,26.55
2019-06-26T20:38:34.424Z,26.39
2019-06-26T20:41:08.295Z,26.30
2019-06-26T20:43:43.690Z,26.20
2019-06-26T20:46:23.614Z,26.16
2019-06-26T20:48:57.464Z,25.97
2019-06-26T20:51:33.107Z,25.99
2019-06-26T20:54:07.247Z,26.06
2019-06-26T20:57:02.278Z,26.05
2019-06-26T20:59:36.731Z,26.05
2019-06-26T21:02:10.184Z,26.30
2019-06-26T21:04:42.399Z,26.18
2019-06-26T21:07:15.950Z,25.98
2019-06-26T21:09:51.468Z,25.88
2019-06-26T21:12:24.692Z,25.79
2019-06-26T21:14:58.417Z,25.68
2019-06-26T21:17:32.580Z,25.61
2019-06-26T21:20:08.008Z,25.51
2019-06-26T21:22:42.298Z,25.43
2019-06-26T21:25:18.941Z,25.39
2019-06-26T21:27:52.637Z,25.26
2019-06-26T21:30:25.534Z,25.30
2019-06-26T21:32:58.124Z,25.14
2019-06-26T21:35:32.103Z,25.19
2019-06-26T21:38:04.814Z,25.27
2019-06-26T21:40:37.140Z,25.38
2019-06-26T21:43:12.594Z,25.27
2019-06-26T21:45:45.929Z,25.11
2019-06-26T21:48:21.739Z,25.12
2019-06-26T21:50:57.602Z,25.31
2019-06-26T21:53:29.828Z,25.18
2019-06-26T21:56:21.905Z,25.06
2019-06-26T21:59:14.857Z,25.13
2019-06-26T22:02:06.375Z,25.03
2019-06-26T22:04:54.358Z,25.00
2019-06-26T22:07:29.889Z,24.95
2019-06-26T22:10:10.280Z,25.02
2019-06-26T22:12:45.946Z,24.86
2019-06-26T22:15:19.871Z,24.92
2019-06-26T22:17:53.586Z,25.10
2019-06-26T22:20:26.788Z,25.14
2019-06-26T22:22:59.493Z,25.21
2019-06-26T22:25:46.660Z,25.17
2019-06-26T22:28:09.675Z,25.07
2019-06-26T22:30:44.388Z,25.12
2019-06-26T22:33:16.731Z,25.02
2019-06-26T22:35:49.917Z,25.05
2019-06-26T22:38:24.023Z,25.03
2019-06-26T22:40:57.163Z,25.02
2019-06-26T22:43:32.030Z,24.96
2019-06-26T22:46:05.424Z,24.81
2019-06-26T22:48:39.797Z,24.76
2019-06-26T22:51:13.205Z,24.55
2019-06-26T22:53:48.229Z,24.44
2019-06-26T22:56:21.537Z,24.35
2019-06-26T22:58:55.378Z,24.38
2019-06-26T23:01:28.315Z,24.48
2019-06-26T23:04:01.891Z,24.48
2019-06-26T23:06:37.414Z,24.46
2019-06-26T23:09:11.689Z,24.47
2019-06-26T23:11:44.216Z,24.39
2019-06-26T23:14:25.723Z,24.34
2019-06-26T23:17:00.499Z,24.31
2019-06-26T23:19:33.030Z,24.25
2019-06-26T23:22:05.664Z,24.15
2019-06-26T23:24:38.331Z,24.02
2019-06-26T23:27:11.871Z,24.03
2019-06-26T23:29:44.787Z,23.97
2019-06-26T23:32:19.166Z,23.87
2019-06-26T23:34:51.598Z,23.99
2019-06-26T23:37:25.442Z,24.13
2019-06-26T23:39:58.160Z,24.06
2019-06-26T23:42:30.393Z,24.11
2019-06-26T23:45:05.786Z,24.21
2019-06-26T23:47:39.950Z,24.21
2019-06-26T23:50:12.557Z,24.37
2019-06-26T23:52:45.925Z,24.47
2019-06-26T23:55:20.153Z,24.51
2019-06-26T23:57:59.011Z,24.45
